Time;durP1;ratioP1;P1;durP2;ratioP2;P2;SDS_P1;SDS_P2;PMS_P1;PMS_P2;Temp;Humidity;BMP_temperature;BMP_pressure;BME280_temperature;BME280_humidity;BME280_pressure;Samples;Min_cycle;Max_cycle;Signal;HPM_P1;HPM_P2
2022/06/27 00:00:19;;;;;;;34.85;5.75;;;;;;;21.86;100.00;97471.69;5004998;28;20025;-53
2022/06/27 00:02:44;;;;;;;33.78;5.68;;;;;;;21.83;100.00;97464.00;5005787;28;20757;-52
2022/06/27 00:05:11;;;;;;;31.38;5.65;;;;;;;21.73;100.00;97459.56;5005286;28;20487;-51
2022/06/27 00:07:37;;;;;;;29.42;5.45;;;;;;;21.65;100.00;97461.28;5006216;28;20060;-52
2022/06/27 00:10:04;;;;;;;37.78;6.00;;;;;;;21.78;100.00;97455.63;5004657;28;20037;-52
2022/06/27 00:12:29;;;;;;;31.20;5.38;;;;;;;21.65;100.00;97440.91;5006042;28;20045;-52
2022/06/27 00:14:55;;;;;;;34.65;5.65;;;;;;;21.85;100.00;97451.41;5004638;28;20029;-52
2022/06/27 00:17:20;;;;;;;33.33;5.85;;;;;;;21.95;100.00;97447.72;5005456;28;20042;-52
2022/06/27 00:19:46;;;;;;;31.20;5.63;;;;;;;22.03;100.00;97449.63;5006939;28;20029;-53
2022/06/27 00:22:11;;;;;;;35.75;6.03;;;;;;;22.03;100.00;97446.97;5004683;28;20038;-51
2022/06/27 00:24:37;;;;;;;33.58;5.63;;;;;;;22.00;100.00;97455.25;5007803;28;20036;-52
2022/06/27 00:27:02;;;;;;;31.42;5.43;;;;;;;22.08;100.00;97458.00;5002359;28;20041;-52
2022/06/27 00:29:28;;;;;;;35.90;6.05;;;;;;;22.14;100.00;97467.19;5005467;28;20041;-52
2022/06/27 00:31:53;;;;;;;34.70;5.65;;;;;;;22.16;100.00;97467.03;5003816;28;20030;-52
2022/06/27 00:34:18;;;;;;;28.80;5.20;;;;;;;22.19;100.00;97470.25;5007945;28;20034;-52
2022/06/27 00:36:44;;;;;;;34.85;6.05;;;;;;;22.25;100.00;97463.50;5004395;28;20056;-51
2022/06/27 00:39:10;;;;;;;35.47;6.22;;;;;;;22.21;100.00;97456.81;5004011;28;20530;-52
2022/06/27 00:41:35;;;;;;;28.83;5.50;;;;;;;22.23;100.00;97460.16;5002915;28;20580;-52
2022/06/27 00:44:01;;;;;;;34.55;6.07;;;;;;;22.26;100.00;97459.91;5005462;28;20113;-51
2022/06/27 00:46:29;;;;;;;26.75;5.35;;;;;;;22.18;100.00;97467.72;5005587;28;20048;-52
2022/06/27 00:48:54;;;;;;;27.98;5.35;;;;;;;22.18;100.00;97473.03;5003947;28;20498;-53
2022/06/27 00:51:20;;;;;;;38.75;6.38;;;;;;;22.32;100.00;97476.06;5003961;28;20132;-54
2022/06/27 00:53:46;;;;;;;29.15;5.55;;;;;;;22.39;100.00;97476.31;5006948;28;20036;-53
2022/06/27 00:56:12;;;;;;;29.63;5.28;;;;;;;22.44;100.00;97484.66;5005558;28;20438;-51
2022/06/27 00:58:38;;;;;;;36.65;6.05;;;;;;;22.50;100.00;97488.53;5004343;28;20064;-51
2022/06/27 01:01:03;;;;;;;30.13;5.30;;;;;;;22.45;100.00;97475.69;5005123;28;20412;-52
2022/06/27 01:03:30;;;;;;;36.72;5.82;;;;;;;22.51;100.00;97480.38;5006153;28;20688;-52
2022/06/27 01:05:56;;;;;;;31.60;5.38;;;;;;;22.74;100.00;97487.94;5003545;28;20042;-52
2022/06/27 01:08:26;;;;;;;44.35;6.50;;;;;;;22.70;100.00;97490.06;5007799;28;20026;-52
2022/06/27 01:10:52;;;;;;;30.25;5.50;;;;;;;22.69;100.00;97495.53;5004180;28;20033;-52
2022/06/27 01:13:18;;;;;;;34.75;6.13;;;;;;;22.73;100.00;97493.41;5005991;28;20060;-54
2022/06/27 01:15:45;;;;;;;34.58;6.13;;;;;;;22.80;100.00;97497.94;5004215;28;20620;-52
2022/06/27 01:18:12;;;;;;;35.45;6.03;;;;;;;22.54;100.00;97494.38;5005430;28;20026;-51
2022/06/27 01:20:40;;;;;;;40.83;6.55;;;;;;;22.25;100.00;97487.41;5014779;28;20045;-55
2022/06/27 01:23:06;;;;;;;34.20;5.75;;;;;;;22.21;100.00;97481.53;5008361;28;20346;-52
2022/06/27 01:25:35;;;;;;;33.53;5.65;;;;;;;22.37;100.00;97488.03;5007121;28;20030;-54
2022/06/27 01:28:01;;;;;;;30.52;5.53;;;;;;;22.35;100.00;97484.72;5010304;28;20045;-52
2022/06/27 01:30:26;;;;;;;31.40;5.68;;;;;;;22.62;100.00;97491.81;5008280;28;20025;-52
2022/06/27 01:32:51;;;;;;;33.83;5.35;;;;;;;22.56;100.00;97492.41;5008576;28;20747;-51
2022/06/27 01:35:17;;;;;;;28.73;4.85;;;;;;;22.42;100.00;97491.91;5009230;28;20045;-53
2022/06/27 01:37:43;;;;;;;30.65;5.43;;;;;;;22.57;100.00;97491.41;5008615;28;20022;-52
2022/06/27 01:40:08;;;;;;;47.80;6.57;;;;;;;22.69;100.00;97492.88;5005634;28;20910;-51
2022/06/27 01:42:35;;;;;;;26.10;5.05;;;;;;;22.54;100.00;97491.72;5008701;28;20026;-53
2022/06/27 01:45:01;;;;;;;34.17;6.53;;;;;;;21.88;100.00;97494.44;5009284;28;20065;-53
2022/06/27 01:47:27;;;;;;;31.15;5.85;;;;;;;21.88;100.00;97512.19;5008997;28;20575;-53
2022/06/27 01:49:53;;;;;;;34.17;5.88;;;;;;;21.84;100.00;97510.81;5008585;28;20809;-51
2022/06/27 01:52:19;;;;;;;30.30;5.97;;;;;;;21.52;100.00;97512.88;5007187;28;20486;-52
2022/06/27 01:54:44;;;;;;;30.98;5.75;;;;;;;21.88;100.00;97505.06;5010933;28;20025;-52
2022/06/27 01:57:10;;;;;;;35.13;6.25;;;;;;;21.77;100.00;97512.38;5008851;28;20061;-52
2022/06/27 01:59:36;;;;;;;38.15;6.30;;;;;;;21.82;100.00;97513.59;5007306;28;20061;-53
2022/06/27 02:02:04;;;;;;;34.38;5.93;;;;;;;21.91;100.00;97514.56;5007311;28;20034;-52
2022/06/27 02:04:30;;;;;;;34.67;5.82;;;;;;;22.21;100.00;97515.25;5007566;28;20037;-54
2022/06/27 02:06:57;;;;;;;30.38;5.78;;;;;;;22.03;100.00;97524.00;5008405;28;20061;-52
2022/06/27 02:09:23;;;;;;;32.78;6.05;;;;;;;21.57;100.00;97544.25;5007200;28;20503;-52
2022/06/27 02:11:51;;;;;;;30.65;5.50;;;;;;;21.66;100.00;97548.72;5007410;28;20048;-53
2022/06/27 02:14:18;;;;;;;33.40;5.57;;;;;;;21.89;100.00;97566.94;5008554;28;20036;-52
2022/06/27 02:16:44;;;;;;;31.70;5.60;;;;;;;21.69;100.00;97593.56;5008090;28;20056;-52
2022/06/27 02:19:16;;;;;;;34.17;6.20;;;;;;;21.58;100.00;97644.13;5009760;28;20082;-52
2022/06/27 02:21:42;;;;;;;31.58;5.30;;;;;;;21.67;100.00;97688.41;5006263;28;20038;-54
2022/06/27 02:24:09;;;;;;;41.85;6.47;;;;;;;21.58;100.00;97712.28;5010221;28;20037;-52
2022/06/27 02:26:35;;;;;;;42.65;6.70;;;;;;;21.47;100.00;97714.09;5008550;28;20049;-53
2022/06/27 02:29:01;;;;;;;32.35;6.10;;;;;;;21.55;100.00;97721.38;5005192;28;20116;-52
2022/06/27 02:31:27;;;;;;;43.47;6.50;;;;;;;22.00;100.00;97726.13;5005736;28;20040;-51
2022/06/27 02:33:54;;;;;;;38.08;6.30;;;;;;;21.87;100.00;97730.84;5008210;28;20118;-52
2022/06/27 02:36:26;;;;;;;51.40;7.60;;;;;;;22.05;100.00;97729.16;5007846;28;20077;-51
2022/06/27 02:38:54;;;;;;;35.25;6.15;;;;;;;22.05;100.00;97733.63;5006872;28;20488;-51
2022/06/27 02:41:20;;;;;;;43.38;6.82;;;;;;;21.90;100.00;97742.03;5004831;28;20403;-52
2022/06/27 02:43:55;;;;;;;36.80;6.18;;;;;;;21.79;100.00;97757.28;5007302;28;20717;-52
2022/06/27 02:46:20;;;;;;;34.30;6.28;;;;;;;21.88;100.00;97749.31;5015003;28;20201;-52
2022/06/27 02:48:50;;;;;;;30.92;5.88;;;;;;;22.12;100.00;97767.44;5007353;28;20805;-51
2022/06/27 02:51:22;;;;;;;32.67;6.03;;;;;;;22.26;100.00;97792.78;5005925;28;20033;-52
2022/06/27 02:54:00;;;;;;;39.92;6.53;;;;;;;22.06;100.00;97810.53;5005051;28;20109;-52
2022/06/27 02:56:26;;;;;;;28.13;5.57;;;;;;;22.22;100.00;97809.09;5006664;28;20081;-52
2022/06/27 02:59:01;;;;;;;23.75;5.18;;;;;;;22.06;100.00;97810.53;5008924;28;20625;-52
2022/06/27 03:01:29;;;;;;;24.25;4.80;;;;;;;22.14;100.00;97810.66;5007506;28;20036;-52
2022/06/27 03:03:57;;;;;;;32.40;5.88;;;;;;;22.13;100.00;97808.97;5005098;28;20052;-52
2022/06/27 03:06:22;;;;;;;30.45;6.43;;;;;;;21.92;100.00;97816.25;5007037;28;20041;-53
2022/06/27 03:08:48;;;;;;;34.38;6.28;;;;;;;22.11;100.00;97813.59;5007771;28;20521;-54
2022/06/27 03:11:18;;;;;;;22.95;5.13;;;;;;;22.21;100.00;97810.94;5005942;28;20034;-52
2022/06/27 03:13:45;;;;;;;38.55;6.70;;;;;;;21.87;100.00;97794.56;5006578;28;20034;-52
2022/06/27 03:16:12;;;;;;;30.15;5.88;;;;;;;22.50;100.00;97781.69;5007017;28;20781;-52
2022/06/27 03:18:37;;;;;;;32.03;6.18;;;;;;;22.31;100.00;97787.91;5007192;28;20557;-53
2022/06/27 03:21:03;;;;;;;28.17;5.93;;;;;;;22.10;100.00;97780.03;5006696;28;20774;-52
2022/06/27 03:23:28;;;;;;;28.30;6.03;;;;;;;22.09;100.00;97794.31;5008359;28;20022;-53
2022/06/27 03:25:54;;;;;;;34.22;6.40;;;;;;;21.96;100.00;97785.78;5006058;28;20049;-52
2022/06/27 03:28:20;;;;;;;30.38;6.65;;;;;;;21.60;100.00;97768.72;5007473;28;20113;-53
2022/06/27 03:30:45;;;;;;;28.70;6.35;;;;;;;21.90;100.00;97783.69;5004988;28;20850;-52
2022/06/27 03:33:11;;;;;;;30.52;6.35;;;;;;;21.77;100.00;97775.16;5005806;28;20027;-52
2022/06/27 03:35:37;;;;;;;21.60;5.53;;;;;;;21.86;100.00;97756.56;5007623;28;20141;-52
2022/06/27 03:38:02;;;;;;;34.13;7.32;;;;;;;21.67;100.00;97736.19;5005969;28;20506;-54
2022/06/27 03:40:28;;;;;;;24.63;5.43;;;;;;;22.01;100.00;97711.00;5005194;28;20571;-53
2022/06/27 03:42:53;;;;;;;29.25;6.82;;;;;;;21.60;100.00;97708.53;5005221;28;20056;-54
2022/06/27 03:45:18;;;;;;;37.03;7.30;;;;;;;21.84;100.00;97707.25;5006012;28;20104;-52
2022/06/27 03:47:50;;;;;;;30.98;7.28;;;;;;;21.69;100.00;97710.34;5007844;28;20036;-52
2022/06/27 03:50:16;;;;;;;35.88;7.75;;;;;;;21.61;100.00;97694.25;5004378;28;20041;-53
2022/06/27 03:52:42;;;;;;;27.65;6.93;;;;;;;20.71;100.00;97689.91;5006729;28;20105;-52
2022/06/27 03:55:08;;;;;;;29.88;7.07;;;;;;;21.44;100.00;97692.28;5004301;28;20560;-52
2022/06/27 03:57:38;;;;;;;32.35;7.55;;;;;;;21.12;100.00;97677.47;5005188;28;20038;-52
2022/06/27 04:00:08;;;;;;;44.80;8.63;;;;;;;21.16;100.00;97669.06;5006212;28;20077;-52
2022/06/27 04:02:34;;;;;;;27.38;7.50;;;;;;;20.78;100.00;97659.22;5005403;28;21137;-52
2022/06/27 04:05:00;;;;;;;32.13;6.82;;;;;;;21.17;100.00;97632.78;5006362;28;20030;-54
2022/06/27 04:07:25;;;;;;;37.47;8.05;;;;;;;21.23;100.00;97613.69;5004611;28;20041;-52
2022/06/27 04:09:51;;;;;;;27.63;6.57;;;;;;;21.62;100.00;97608.38;5003891;28;20052;-53
2022/06/27 04:12:16;;;;;;;30.30;7.47;;;;;;;21.43;100.00;97611.00;5005790;28;20451;-53
2022/06/27 04:14:41;;;;;;;31.65;7.32;;;;;;;21.27;100.00;97617.72;5005576;28;20029;-53
2022/06/27 04:17:07;;;;;;;24.35;6.65;;;;;;;21.26;100.00;97597.47;5005701;28;20132;-54
2022/06/27 04:19:32;;;;;;;29.40;6.55;;;;;;;21.53;100.00;97601.25;5005665;28;20043;-54
2022/06/27 04:21:58;;;;;;;31.27;7.10;;;;;;;21.65;100.00;97609.91;5004226;28;20048;-53
2022/06/27 04:24:23;;;;;;;26.42;6.60;;;;;;;21.47;100.00;97607.16;5005775;28;20030;-52
2022/06/27 04:26:48;;;;;;;29.25;6.85;;;;;;;21.55;100.00;97599.31;5003015;28;20049;-52
2022/06/27 04:29:14;;;;;;;31.45;6.78;;;;;;;21.85;100.00;97594.75;5005911;28;20041;-52
2022/06/27 04:31:40;;;;;;;29.70;6.82;;;;;;;22.00;100.00;97601.31;5003115;28;20045;-52
2022/06/27 04:34:05;;;;;;;29.30;6.45;;;;;;;21.63;100.00;97612.69;5005914;28;20030;-52
2022/06/27 04:36:31;;;;;;;26.73;5.80;;;;;;;22.03;100.00;97600.16;5004852;28;20154;-53
2022/06/27 04:38:57;;;;;;;28.20;6.30;;;;;;;21.88;100.00;97607.75;5004971;28;20033;-52
2022/06/27 04:41:25;;;;;;;32.53;6.78;;;;;;;21.85;100.00;97608.03;5006170;28;20049;-54
2022/06/27 04:43:52;;;;;;;40.58;7.45;;;;;;;21.75;100.00;97600.09;5005151;28;20029;-53
2022/06/27 04:46:18;;;;;;;29.77;6.55;;;;;;;22.08;100.00;97601.41;5005026;28;20042;-53
2022/06/27 04:48:45;;;;;;;38.60;7.40;;;;;;;22.73;100.00;97602.41;5005610;28;20059;-52
2022/06/27 04:51:11;;;;;;;31.77;6.20;;;;;;;22.71;100.00;97586.59;5003193;28;20045;-52
2022/06/27 04:53:37;;;;;;;29.00;5.95;;;;;;;23.37;100.00;97587.25;5004287;28;20034;-52
2022/06/27 04:56:03;;;;;;;29.92;6.32;;;;;;;23.36;100.00;97590.88;5002451;28;20049;-52
2022/06/27 04:58:28;;;;;;;31.02;6.38;;;;;;;23.54;100.00;97588.22;5005429;28;20602;-52
2022/06/27 05:00:55;;;;;;;25.02;5.63;;;;;;;25.12;100.00;97577.13;5004079;28;20514;-52
2022/06/27 05:03:22;;;;;;;26.20;5.93;;;;;;;25.53;100.00;97576.31;5005743;28;20018;-53
2022/06/27 05:05:49;;;;;;;30.17;6.43;;;;;;;25.41;100.00;97565.16;5004877;28;20037;-53
2022/06/27 05:08:15;;;;;;;29.10;6.00;;;;;;;25.67;100.00;97567.63;5007661;28;20057;-53
2022/06/27 05:10:40;;;;;;;22.40;5.10;;;;;;;25.77;100.00;97556.78;5004263;28;20121;-53
2022/06/27 05:13:06;;;;;;;18.77;5.18;;;;;;;26.08;100.00;97564.91;5002727;28;20189;-52
2022/06/27 05:15:31;;;;;;;26.50;5.72;;;;;;;27.76;100.00;97571.59;5003814;28;20053;-52
2022/06/27 05:17:57;;;;;;;27.08;5.60;;;;;;;29.25;100.00;97566.06;5004468;28;20037;-53
2022/06/27 05:20:22;;;;;;;24.25;5.63;;;;;;;30.63;81.17;97566.41;5003612;28;20683;-53
2022/06/27 05:22:47;;;;;;;22.67;5.05;;;;;;;30.01;77.38;97560.88;5004460;28;20022;-53
2022/06/27 05:25:13;;;;;;;23.10;5.47;;;;;;;29.73;80.76;97559.03;5002746;28;20867;-53
2022/06/27 05:27:38;;;;;;;19.30;4.63;;;;;;;31.87;67.35;97562.44;5005849;28;20167;-52
2022/06/27 05:30:05;;;;;;;25.08;5.45;;;;;;;32.62;60.88;97554.78;5002323;28;20024;-55
2022/06/27 05:32:30;;;;;;;19.80;4.97;;;;;;;34.49;51.33;97552.47;5005989;28;20179;-53
2022/06/27 05:34:56;;;;;;;14.48;3.80;;;;;;;34.98;49.05;97550.59;5005995;28;20033;-53
2022/06/27 05:37:21;;;;;;;21.35;4.90;;;;;;;33.41;51.22;97558.06;5006971;28;20044;-53
2022/06/27 05:39:47;;;;;;;14.55;4.10;;;;;;;34.48;48.41;97557.06;5002857;28;20030;-52
2022/06/27 05:42:12;;;;;;;17.15;3.88;;;;;;;34.57;46.30;97560.28;5003291;28;20030;-53
2022/06/27 05:44:38;;;;;;;13.65;3.88;;;;;;;35.45;43.36;97566.97;5006026;28;20547;-53
2022/06/27 05:47:04;;;;;;;15.15;4.43;;;;;;;33.88;46.92;97563.09;5005817;28;20076;-53
2022/06/27 05:49:30;;;;;;;13.35;4.18;;;;;;;32.02;50.57;97575.69;5004753;28;20024;-54
2022/06/27 05:51:57;;;;;;;14.00;4.00;;;;;;;31.72;52.37;97575.31;5004821;28;20042;-53
2022/06/27 05:54:22;;;;;;;13.35;4.22;;;;;;;31.70;53.58;97570.94;5004722;28;20075;-55
2022/06/27 05:56:48;;;;;;;17.85;4.35;;;;;;;31.51;56.34;97585.28;5004566;28;20045;-54
2022/06/27 05:59:14;;;;;;;15.18;4.32;;;;;;;33.16;51.56;97587.78;5004038;28;20120;-53
2022/06/27 06:01:40;;;;;;;15.50;4.13;;;;;;;33.59;49.16;97576.22;5004097;28;20860;-53
2022/06/27 06:04:06;;;;;;;13.00;4.13;;;;;;;34.46;47.18;97585.41;5004071;28;20052;-53
2022/06/27 06:06:32;;;;;;;11.95;3.80;;;;;;;34.18;47.49;97590.28;5007710;28;20041;-53
2022/06/27 06:08:59;;;;;;;13.40;4.00;;;;;;;34.73;45.08;97586.75;5008989;28;20029;-53
2022/06/27 06:11:25;;;;;;;15.30;4.28;;;;;;;34.33;46.55;97587.19;5008257;28;20042;-55
2022/06/27 06:13:52;;;;;;;15.90;4.20;;;;;;;33.41;48.01;97578.88;5007740;28;20094;-53
2022/06/27 06:16:19;;;;;;;12.82;3.88;;;;;;;35.43;44.50;97574.53;5006176;28;20441;-53
2022/06/27 06:18:50;;;;;;;15.18;4.45;;;;;;;37.63;39.70;97577.50;5007041;28;20506;-55
2022/06/27 06:21:17;;;;;;;14.05;3.53;;;;;;;36.42;39.52;97586.63;5010473;28;20056;-54
2022/06/27 06:23:42;;;;;;;10.82;3.67;;;;;;;36.80;39.22;97579.81;5008743;28;20044;-53
2022/06/27 06:26:08;;;;;;;9.18;3.28;;;;;;;37.66;38.32;97582.44;5009945;28;20346;-53
2022/06/27 06:28:33;;;;;;;13.65;3.80;;;;;;;36.30;41.43;97583.09;5006917;28;20026;-53
2022/06/27 06:30:59;;;;;;;12.60;3.70;;;;;;;38.21;38.37;97596.34;5007418;28;20045;-54
2022/06/27 06:33:24;;;;;;;9.15;3.50;;;;;;;36.26;41.78;97597.13;5013264;28;20041;-53
2022/06/27 06:35:50;;;;;;;9.85;3.53;;;;;;;38.40;38.26;97603.16;5008986;28;20129;-54
2022/06/27 06:38:15;;;;;;;9.20;3.30;;;;;;;37.60;38.10;97602.44;5008148;28;20018;-54
2022/06/27 06:40:41;;;;;;;15.82;3.72;;;;;;;36.26;39.75;97604.47;5005338;28;20685;-54
2022/06/27 06:43:06;;;;;;;10.63;3.78;;;;;;;38.99;35.75;97607.13;5009249;28;20121;-54
2022/06/27 06:45:32;;;;;;;9.00;3.90;;;;;;;36.57;39.64;97611.38;5008214;28;20053;-53
2022/06/27 06:47:57;;;;;;;10.05;3.70;;;;;;;38.26;37.92;97604.59;5008903;28;20101;-54
2022/06/27 06:50:22;;;;;;;9.60;3.55;;;;;;;39.77;34.93;97612.28;5005548;28;20014;-55
2022/06/27 06:52:49;;;;;;;9.60;3.80;;;;;;;37.38;37.03;97622.22;5007135;28;20692;-54
2022/06/27 06:55:16;;;;;;;13.45;4.38;;;;;;;35.10;41.71;97619.19;5006924;28;20033;-54
2022/06/27 06:57:42;;;;;;;8.93;3.95;;;;;;;36.15;40.25;97618.84;5008126;28;20057;-52
2022/06/27 07:00:09;;;;;;;10.63;4.47;;;;;;;36.93;38.23;97617.56;5007237;28;20107;-54
2022/06/27 07:02:35;;;;;;;9.38;3.72;;;;;;;38.41;36.81;97623.84;5006207;28;20707;-55
2022/06/27 07:05:04;;;;;;;10.32;3.80;;;;;;;39.67;35.05;97632.94;5008114;28;20766;-53
2022/06/27 07:07:32;;;;;;;8.48;3.47;;;;;;;38.09;37.83;97640.84;5007985;28;20510;-53
2022/06/27 07:09:59;;;;;;;10.90;3.58;;;;;;;40.04;35.40;97637.63;5008299;28;20029;-53
2022/06/27 07:12:25;;;;;;;7.15;2.95;;;;;;;37.19;38.19;97639.81;5007862;28;20081;-53
2022/06/27 07:14:54;;;;;;;7.93;3.42;;;;;;;39.38;37.05;97637.84;5007654;28;20025;-54
2022/06/27 07:17:24;;;;;;;7.10;3.20;;;;;;;39.53;36.05;97634.47;5005187;28;20100;-53
2022/06/27 07:19:52;;;;;;;9.07;3.60;;;;;;;37.32;39.32;97634.06;5007419;28;20049;-52
2022/06/27 07:22:18;;;;;;;9.70;3.38;;;;;;;38.60;36.22;97629.03;4991416;28;20052;-53
2022/06/27 07:24:44;;;;;;;12.07;3.70;;;;;;;39.65;36.37;97626.94;5006890;28;20018;-53
2022/06/27 07:27:09;;;;;;;9.90;3.67;;;;;;;39.45;37.14;97630.31;5007219;28;20053;-54
2022/06/27 07:29:35;;;;;;;11.38;3.90;;;;;;;40.05;36.75;97620.16;5007518;28;20026;-52
2022/06/27 07:32:01;;;;;;;10.23;3.50;;;;;;;40.82;35.76;97620.56;5006420;28;20050;-54
2022/06/27 07:34:27;;;;;;;10.02;3.58;;;;;;;40.67;35.23;97610.38;5007816;28;20029;-55
2022/06/27 07:36:52;;;;;;;10.32;3.70;;;;;;;41.81;34.57;97616.94;5005980;28;20068;-53
2022/06/27 07:39:18;;;;;;;10.00;3.50;;;;;;;40.25;36.67;97618.63;5007616;28;20399;-53
2022/06/27 07:41:44;;;;;;;8.82;3.60;;;;;;;38.55;37.88;97610.72;5005394;28;20496;-53
2022/06/27 07:44:10;;;;;;;9.30;3.40;;;;;;;39.62;36.17;97611.06;5007733;28;20030;-53
2022/06/27 07:46:35;;;;;;;8.50;3.40;;;;;;;38.50;37.12;97616.06;5006437;28;20470;-52
2022/06/27 07:49:01;;;;;;;11.90;3.90;;;;;;;40.14;35.36;97617.75;5006227;28;20025;-52
2022/06/27 07:51:27;;;;;;;8.93;3.40;;;;;;;39.92;36.26;97608.88;5006491;28;20041;-53
2022/06/27 07:53:53;;;;;;;10.23;3.80;;;;;;;40.09;35.74;97610.34;5006197;28;20033;-52
2022/06/27 07:56:20;;;;;;;9.65;3.45;;;;;;;40.72;35.66;97612.31;5005788;28;20034;-53
2022/06/27 07:58:48;;;;;;;10.80;3.75;;;;;;;38.94;37.71;97611.44;5004935;28;20488;-54
2022/06/27 08:01:14;;;;;;;12.23;3.53;;;;;;;40.16;35.68;97625.69;5005413;28;20034;-57
2022/06/27 08:03:42;;;;;;;11.35;3.95;;;;;;;39.13;36.67;97619.31;5003986;28;20102;-53
2022/06/27 08:06:13;;;;;;;9.80;3.65;;;;;;;37.54;38.43;97622.50;5006660;28;20060;-54
2022/06/27 08:08:41;;;;;;;9.60;3.40;;;;;;;37.82;38.56;97631.69;5007045;28;20174;-55
2022/06/27 08:11:10;;;;;;;10.60;3.75;;;;;;;37.76;39.86;97639.75;5004201;28;20128;-54
2022/06/27 08:13:37;;;;;;;10.82;4.10;;;;;;;37.23;39.48;97651.84;5006695;28;20022;-55
2022/06/27 08:16:05;;;;;;;11.63;3.80;;;;;;;37.63;39.16;97650.97;5003561;28;20042;-53
2022/06/27 08:18:31;;;;;;;11.23;3.92;;;;;;;37.62;39.36;97654.75;5004423;28;20562;-55
2022/06/27 08:20:59;;;;;;;11.63;3.58;;;;;;;37.59;40.60;97655.22;5002717;28;20158;-55
2022/06/27 08:23:24;;;;;;;10.55;3.70;;;;;;;37.50;39.44;97656.69;5005894;28;20108;-54
2022/06/27 08:25:50;;;;;;;11.18;3.80;;;;;;;37.69;39.52;97655.41;5004960;28;20044;-54
2022/06/27 08:28:16;;;;;;;13.00;4.20;;;;;;;37.02;40.29;97656.88;5007664;28;20025;-54
2022/06/27 08:30:42;;;;;;;11.73;4.22;;;;;;;36.38;40.80;97667.72;5006055;28;20482;-53
2022/06/27 08:33:08;;;;;;;10.48;3.72;;;;;;;36.34;42.79;97671.16;5006420;28;20682;-54
2022/06/27 08:35:35;;;;;;;10.77;3.85;;;;;;;36.42;42.97;97681.66;5006301;28;20044;-56
2022/06/27 08:38:01;;;;;;;13.15;3.65;;;;;;;37.73;41.72;97683.78;5006230;28;20026;-54
2022/06/27 08:40:28;;;;;;;12.93;4.10;;;;;;;38.95;39.86;97694.91;5003669;28;20037;-54
2022/06/27 08:42:55;;;;;;;14.05;4.70;;;;;;;36.04;45.10;97693.78;5005374;28;20033;-54
2022/06/27 08:45:23;;;;;;;10.00;3.55;;;;;;;37.43;42.43;97703.09;5005578;28;20022;-54
2022/06/27 08:47:48;;;;;;;11.77;4.13;;;;;;;36.22;44.66;97699.13;5006952;28;20064;-54
2022/06/27 08:50:15;;;;;;;14.60;5.10;;;;;;;35.16;47.51;97719.63;5004509;28;20072;-54
2022/06/27 08:52:41;;;;;;;13.95;4.57;;;;;;;36.78;44.87;97704.19;5005342;28;20045;-54
2022/06/27 08:55:09;;;;;;;12.88;4.30;;;;;;;35.96;47.54;97715.84;5006245;28;20115;-54
2022/06/27 08:57:36;;;;;;;15.73;5.07;;;;;;;35.50;48.97;97720.88;5006162;28;20022;-54
2022/06/27 09:00:06;;;;;;;17.25;4.97;;;;;;;36.41;47.59;97709.88;5005509;28;20272;-56
2022/06/27 09:02:33;;;;;;;12.95;4.60;;;;;;;36.18;45.85;97711.53;5006492;28;20059;-53
2022/06/27 09:04:59;;;;;;;14.15;4.57;;;;;;;36.09;47.83;97710.19;5007410;28;20022;-54
2022/06/27 09:07:52;;;;;;;12.32;4.35;;;;;;;35.85;47.45;97704.72;5004525;28;20756;-55
2022/06/27 09:10:24;;;;;;;13.38;4.57;;;;;;;35.61;49.92;97713.84;5004258;28;20029;-55
2022/06/27 09:12:57;;;;;;;13.70;4.40;;;;;;;34.53;52.59;97716.13;5006991;28;20853;-55
2022/06/27 09:15:46;;;;;;;13.90;4.55;;;;;;;36.33;47.38;97721.09;5005067;28;20535;-54
2022/06/27 09:18:39;;;;;;;12.70;4.28;;;;;;;36.80;46.82;97712.97;5004278;28;20037;-54
2022/06/27 09:21:13;;;;;;;12.60;4.32;;;;;;;37.17;46.68;97728.97;5002096;28;20585;-54
2022/06/27 09:23:43;;;;;;;13.35;4.50;;;;;;;34.62;53.40;97722.91;5006438;28;20033;-54
2022/06/27 09:26:12;;;;;;;13.77;4.50;;;;;;;35.69;48.66;97730.63;5005275;28;20042;-53
2022/06/27 09:28:45;;;;;;;19.83;5.25;;;;;;;35.07;50.59;97733.50;5004798;28;20730;-53
2022/06/27 09:31:30;;;;;;;22.92;5.88;;;;;;;33.51;56.48;97730.63;5004717;28;20526;-53
2022/06/27 09:34:14;;;;;;;17.48;4.68;;;;;;;34.77;51.25;97746.13;5005496;28;20018;-54
2022/06/27 09:36:46;;;;;;;21.05;4.65;;;;;;;34.85;53.37;97732.28;5003231;28;20926;-53
2022/06/27 09:39:35;;;;;;;23.70;5.53;;;;;;;35.92;50.94;97747.19;5004826;28;20064;-54
2022/06/27 09:42:06;;;;;;;16.15;4.68;;;;;;;35.07;51.63;97747.03;5007593;28;20653;-55
2022/06/27 09:44:34;;;;;;;17.13;5.05;;;;;;;34.73;53.54;97748.47;5011170;28;20502;-54
2022/06/27 09:47:08;;;;;;;18.33;4.88;;;;;;;35.20;50.46;97740.66;5009544;28;20124;-54
2022/06/27 09:49:37;;;;;;;22.48;5.25;;;;;;;36.01;49.59;97745.81;5006662;28;20117;-54
2022/06/27 09:52:08;;;;;;;20.20;4.90;;;;;;;35.43;50.58;97745.34;5009057;28;20034;-53
2022/06/27 09:54:36;;;;;;;18.75;4.85;;;;;;;34.03;54.58;97726.97;5007413;28;20026;-54
2022/06/27 09:57:03;;;;;;;22.05;4.90;;;;;;;33.44;58.47;97735.22;5009294;28;20623;-54
2022/06/27 09:59:30;;;;;;;17.90;4.80;;;;;;;34.56;54.25;97742.78;5006531;28;20761;-56
2022/06/27 10:01:57;;;;;;;21.38;5.03;;;;;;;34.25;55.80;97741.78;5008299;28;20049;-55
2022/06/27 10:04:24;;;;;;;22.25;5.25;;;;;;;33.53;56.85;97746.63;5009052;28;20080;-54
2022/06/27 10:06:51;;;;;;;15.18;4.43;;;;;;;33.57;57.39;97745.13;5008112;28;20037;-53
2022/06/27 10:09:20;;;;;;;15.88;4.30;;;;;;;34.59;53.94;97736.88;5008818;28;20385;-54
2022/06/27 10:11:46;;;;;;;24.90;5.68;;;;;;;33.77;55.23;97750.47;5007496;28;20124;-54
2022/06/27 10:14:20;;;;;;;19.70;4.72;;;;;;;35.00;51.39;97743.59;5006859;28;20037;-54
2022/06/27 10:16:58;;;;;;;24.33;4.85;;;;;;;33.73;55.31;97751.91;5008072;28;20762;-53
2022/06/27 10:19:28;;;;;;;19.33;4.80;;;;;;;35.59;52.97;97756.66;5005290;28;20037;-54
2022/06/27 10:21:55;;;;;;;19.45;4.70;;;;;;;32.35;57.29;97764.56;5007080;28;20044;-53
2022/06/27 10:24:26;;;;;;;21.85;4.80;;;;;;;32.74;59.83;97762.06;5010063;28;20069;-53
2022/06/27 10:26:55;;;;;;;;;;;;;;;32.04;67.68;97768.69;5009079;28;20053;-52
2022/06/27 10:29:30;;;;;;;21.02;4.65;;;;;;;31.61;69.11;97773.56;5006219;28;19917;-54
2022/06/27 10:32:03;;;;;;;23.45;4.90;;;;;;;32.16;68.20;97777.00;5006655;28;20042;-53
2022/06/27 10:34:37;;;;;;;23.65;5.03;;;;;;;32.79;63.61;97765.78;5009557;28;20068;-52
2022/06/27 10:37:21;;;;;;;18.33;4.35;;;;;;;33.28;58.67;97773.56;5007361;28;20380;-53
2022/06/27 10:39:53;;;;;;;25.52;5.40;;;;;;;33.66;57.22;97776.31;5008720;28;20030;-53
2022/06/27 10:42:51;;;;;;;23.15;4.90;;;;;;;33.90;57.39;97777.41;5008210;28;20081;-53
2022/06/27 10:45:20;;;;;;;22.15;4.65;;;;;;;33.49;57.40;97775.97;4982980;28;20044;-53
2022/06/27 10:47:48;;;;;;;21.85;4.50;;;;;;;34.58;53.92;97772.34;5006796;28;20054;-53
2022/06/27 10:50:16;;;;;;;22.77;4.80;;;;;;;34.41;52.86;97785.59;5009121;28;20029;-53
2022/06/27 10:52:42;;;;;;;15.95;3.80;;;;;;;35.04;51.95;97766.47;5006278;28;20037;-55
2022/06/27 10:55:24;;;;;;;20.27;4.18;;;;;;;34.91;50.43;97766.63;5008989;28;20045;-53
2022/06/27 10:57:51;;;;;;;19.80;4.22;;;;;;;33.07;55.31;97761.97;5009546;28;20137;-54
2022/06/27 11:00:42;;;;;;;18.83;4.13;;;;;;;34.56;53.64;97769.84;5007424;28;20025;-55
2022/06/27 11:03:20;;;;;;;22.98;4.40;;;;;;;33.82;55.79;97774.97;5009130;28;20135;-53
2022/06/27 11:06:01;;;;;;;21.13;4.15;;;;;;;32.65;56.58;97767.66;5006912;28;20048;-55
2022/06/27 11:08:27;;;;;;;19.08;4.25;;;;;;;33.52;54.91;97770.09;5010201;28;20092;-53
2022/06/27 11:10:53;;;;;;;20.35;4.10;;;;;;;32.99;58.02;97778.38;5006632;28;20741;-54
2022/06/27 11:13:37;;;;;;;20.23;4.03;;;;;;;33.02;56.05;97769.88;5006288;28;20116;-52
2022/06/27 11:16:03;;;;;;;21.00;4.03;;;;;;;34.06;53.99;97775.22;5006796;28;20614;-54
2022/06/27 11:18:46;;;;;;;21.08;4.15;;;;;;;34.70;51.98;97784.97;5008994;28;20060;-52
2022/06/27 11:21:14;;;;;;;23.85;4.20;;;;;;;34.60;52.90;97794.59;5006627;28;20064;-54
2022/06/27 11:23:53;;;;;;;22.58;4.20;;;;;;;33.55;54.48;97791.31;5007688;28;20103;-53